Shoreham-by-Sea, United Kingdom
Current Conditions -  °F | °C
As of 1:20 PM on Saturday 25 Oct 2014 (Local Time) from EGKA Reporting Station
Broken Clouds Broken Clouds  
Wind Chill: 57°   Ceiling: 3600
Heat Index: 57°   Visibility: 6mi
Dew Point: 48°   Wind: 9mph
Humidity: 72%   Direction: 280°W
Pressure: 30.12"   Gusts: NA
Location:  50.83°N, 0.27°W
Report Text: EGKA 251220Z 28008KT 9999 BKN036 14/09 Q1020
Loading
Personal Weather Stations






























Interactive Weather Map
Tropical Storm Tracking
New forecast layout! Learn more

10-Day Weather Forecast

Advertisements
Track Severe Weather on mobile